LICA/SUF METAR and TAF weather

Enter ICAO airport designator
Station Type Date Time Source
LICA METAR 2021/05/12 01:50 UTC NOAA

LICA 120150Z AUTO 24009KT 9999 BKN010/// BKN062/// 18/17 Q1012


Station Type Date Time Source
LICA Decoded METAR 2021/05/12 01:50 UTC NOAA

Lamezia Terme, Italy (LICA) 38-54N 016-15E
May 11, 2021 - 09:50 PM EDT / 2021.05.12 0150 UTC
Wind: from the WSW (240 degrees) at 10 MPH (9 KT):0
Visibility: greater than 7 mile(s):0
Sky conditions: mostly cloudy
Temperature: 64 F (18 C)
Dew Point: 62 F (17 C)
Relative Humidity: 93%
Pressure (altimeter): 29.88 in. Hg (1012 hPa)
ob: LICA 120150Z AUTO 24009KT 9999 BKN010/// BKN062/// 18/17 Q1012
cycle: 2

Station Type Date Time Source
LICA TAF 2021/05/11 18:21 UTC NOAA

TAF LICA 111700Z 1118/1218 26008KT 9999 SCT020
TEMPO 1120/1208 SHRA
BECMG 1206/1208 26018KT

Example: see airport list